Flight Track Log - Related Links

Times and Time Zones

All times are in EDT time to prevent confusion due to time zone crossing. See the N960DL flight status page for this flight to view local times or setup timezone preferences in your user account.

Time Position Orientation Groundspeed Altitude Reporting Facility
EDT Latitude Longitude Course Direction KTS MPH feet Rate Location/Type
Mon 08:18:21 AM 29.6333 -95.2678 86° East 152 175 600  Level Houston Center
Mon 08:18:39 AM 29.6239 -95.2569 135° Southeast 152 175 1,300 1,304 Climbing Houston Center
Mon 08:19:30 AM 29.5914 -95.2311 145° Southeast 255 293 2,100 2,357 Climbing Houston Center
Mon 08:20:31 AM 29.5689 -95.1475 107° East 274 315 5,700 3,393 Climbing Houston Center
Mon 08:21:00 AM 29.8057 -94.9014 82° East  Level Estimated
Mon 08:21:32 AM 29.5778 -95.0631 83° East 273 314 9,000  Level Houston Center
Mon 08:22:00 AM 29.8589 -94.7753 79° East  Level Estimated
Mon 08:22:34 AM 29.5914 -94.9697 80° East 292 336 11,000  Level Houston Center
Mon 08:23:00 AM 29.9120 -94.6491 86° East  Level Estimated
Mon 08:23:35 AM 29.6144 -94.8564 77° East 353 406 12,700  Level Houston Center
Mon 08:24:36 AM 29.6383 -94.7314 78° East 394 453 15,100 2,390 Climbing Houston Center
Mon 08:25:38 AM 29.6656 -94.5997 77° East 420 483 17,600 2,341 Climbing Houston Center
Mon 08:26:39 AM 29.6942 -94.4636 76° East 436 502 19,900 2,244 Climbing Houston Center
Mon 08:27:41 AM 29.7136 -94.2947 82° East 451 519 22,200 1,854 Climbing Houston Center
Mon 08:28:42 AM 29.6978 -94.1469 97° East 471 542 23,700 1,869 Climbing Houston Center
Mon 08:29:43 AM 29.6850 -93.9964 96° East 474 545 26,000 2,098 Climbing Houston Center
Mon 08:30:45 AM 29.6853 -93.8489 90° East 465 535 28,000 1,463 Climbing Houston Center
Mon 08:31:46 AM 29.6839 -93.6983 91° East 470 541 29,000 1,220 Climbing Houston Center
Mon 08:32:48 AM 29.6825 -93.5458 91° East 477 549 30,500 1,268 Climbing Houston Center
Mon 08:33:49 AM 29.6803 -93.3633 91° East 479 551 31,600 1,073 Climbing Houston Center
Mon 08:34:51 AM 29.6786 -93.2133 91° East 475 547 32,700 1,073 Climbing Houston Center
Mon 08:35:52 AM 29.6761 -93.0628 91° East 475 547 33,800 927 Climbing Houston Center
Mon 08:36:54 AM 29.6742 -92.9111 91° East 477 549 34,600 585 Climbing Houston Center
Mon 08:37:55 AM 29.6719 -92.7611 91° East 475 547 35,000 195 Climbing Houston Center
Mon 08:38:57 AM 29.6692 -92.6103 91° East 475 547 35,000  Level Houston Center
Mon 08:39:58 AM 29.6669 -92.4589 91° East 474 545 35,000  Level Houston Center
Mon 08:41:00 AM 29.6728 -92.2764 88° East 477 549 35,000  Level Houston Center
Mon 08:42:01 AM 29.6867 -92.1233 84° East 481 554 35,000  Level Houston Center
Mon 08:43:03 AM 29.7003 -91.9717 84° East 479 551 35,000  Level Houston Center
Mon 08:44:04 AM 29.7122 -91.8200 85° East 478 550 35,000  Level Houston Center
Mon 08:45:06 AM 29.7256 -91.6628 84° East 483 556 35,000  Level Houston Center
Mon 08:46:07 AM 29.7389 -91.5089 84° East 484 557 35,000  Level Houston Center
Mon 08:47:09 AM 29.7517 -91.3553 84° East 485 558 35,000  Level Houston Center
Mon 08:48:11 AM 29.7647 -91.2019 84° East 483 556 35,000 -683 Level Houston Center
Mon 08:49:12 AM 29.8133 -91.0292 72° East 478 550 33,600 -976 Descending Houston Center
Mon 08:50:14 AM 29.8811 -90.9011 59° Northeast 469 540 33,000 -293 Descending Houston Center
Mon 08:51:15 AM 29.9481 -90.7717 59° Northeast 472 543 33,000  Level Houston Center
Mon 08:52:17 AM 30.0136 -90.6403 60° Northeast 473 544 33,000  Level Houston Center
Mon 08:53:19 AM 30.0808 -90.5106 59° Northeast 472 543 33,000  Level Houston Center
Mon 08:54:20 AM 30.1469 -90.3789 60° Northeast 473 544 33,000  Level Houston Center
Mon 08:55:22 AM 30.2164 -90.2447 59° Northeast 483 556 33,000  Level Houston Center
Mon 08:56:24 AM 30.2881 -90.1125 58° Northeast 483 556 33,000  Level Houston Center
Mon 08:57:25 AM 30.3742 -89.9547 58° Northeast 481 554 33,000  Level Houston Center
Mon 08:58:27 AM 30.4492 -89.8169 58° Northeast 488 562 33,000  Level Houston Center
Mon 08:59:29 AM 30.5236 -89.6800 58° Northeast 491 565 33,000  Level Houston Center
Mon 09:00:31 AM 30.5969 -89.5444 58° Northeast 492 566 33,000  Level Houston Center
Mon 09:01:32 AM 30.6692 -89.4100 58° Northeast 491 565 33,000  Level Houston Center
Mon 09:02:34 AM 30.7406 -89.2750 58° Northeast 490 564 33,000  Level Houston Center
Mon 09:03:36 AM 30.8106 -89.1406 59° Northeast 487 560 33,000  Level Houston Center
Mon 09:04:38 AM 30.8814 -89.0058 58° Northeast 489 563 33,000  Level Houston Center
Mon 09:05:39 AM 30.9567 -88.8628 58° Northeast 488 562 33,000  Level Houston Center
Mon 09:06:41 AM 31.0292 -88.7275 58° Northeast 489 563 33,000  Level Houston Center
Mon 09:07:43 AM 31.1086 -88.5750 59° Northeast 487 560 33,000  Level Houston Center
Mon 09:08:45 AM 31.1794 -88.4397 59° Northeast 489 563 33,000  Level Houston Center
Mon 09:09:47 AM 31.2453 -88.3186 58° Northeast 487 560 33,000  Level Houston Center
Mon 09:10:07 AM 31.2756 -88.2683 55° Northeast 467 537 33,000  Level Atlanta Center
Mon 09:11:07 AM 31.3517 -88.1189 59° Northeast 472 543 33,000  Level Atlanta Center
Mon 09:12:07 AM 31.4228 -87.9833 58° Northeast 480 552 33,000  Level Atlanta Center
Mon 09:13:07 AM 31.4958 -87.8478 58° Northeast 480 552 33,000  Level Atlanta Center
Mon 09:14:07 AM 31.5731 -87.7169 55° Northeast 485 558 33,000 -100 Level Atlanta Center
Mon 09:15:07 AM 31.6542 -87.5836 54° Northeast 491 565 32,800 -600 Descending Atlanta Center
Mon 09:16:07 AM 31.7286 -87.4594 55° Northeast 491 565 31,800 -1,050 Descending Atlanta Center
Mon 09:17:07 AM 31.8006 -87.3400 55° Northeast 461 531 30,700 -1,250 Descending Atlanta Center
Mon 09:18:07 AM 31.8597 -87.2397 55° Northeast 438 504 29,300 -1,400 Descending Atlanta Center
Mon 09:19:07 AM 31.8961 -87.1136 71° East 418 481 27,900 -1,500 Descending Atlanta Center
Mon 09:20:07 AM 31.8953 -86.9817 90° East 398 458 26,300 -1,450 Descending Atlanta Center
Mon 09:21:07 AM 31.9003 -86.8497 87° East 398 458 25,000 -650 Descending Atlanta Center
Mon 09:22:07 AM 31.9053 -86.7200 87° East 398 458 25,000  Level Atlanta Center
Mon 09:23:07 AM 31.9103 -86.5906 87° East 398 458 25,000 -500 Level Atlanta Center
Mon 09:24:07 AM 31.9150 -86.4586 88° East 403 464 24,000 -500 Descending Atlanta Center
Mon 09:25:07 AM 31.9194 -86.3292 88° East 403 464 24,000  Level Atlanta Center
Mon 09:26:07 AM 31.9222 -86.1822 89° East 403 464 24,000  Level Atlanta Center
Mon 09:27:07 AM 31.9222 -86.0528 90° East 403 464 24,000  Level Atlanta Center
Mon 09:28:07 AM 31.9306 -85.9231 86° East 403 464 24,000 -200 Level Atlanta Center
Mon 09:29:07 AM 31.9883 -85.8192 57° Northeast 382 440 23,600 -700 Descending Atlanta Center
Mon 09:30:07 AM 32.0908 -85.8114 North 316 364 22,600 -950 Descending Atlanta Center
Mon 09:31:07 AM 32.1814 -85.7542 28° Northeast 336 387 21,700 -1,200 Descending Atlanta Center
Mon 09:32:07 AM 32.2719 -85.6969 28° Northeast 357 411 20,200 -1,650 Descending Atlanta Center
Mon 09:33:07 AM 32.3686 -85.6372 28° Northeast 367 422 18,400 -1,100 Descending Atlanta Center
Mon 09:34:07 AM 32.4614 -85.5775 29° Northeast 374 430 18,000 -200 Descending Atlanta Center
Mon 09:35:07 AM 32.5519 -85.5150 30° Northeast 374 430 18,000  Level Atlanta Center
Mon 09:36:07 AM 32.6403 -85.4450 34° Northeast 374 430 18,000  Level Atlanta Center
Mon 09:37:07 AM 32.7286 -85.3772 33° Northeast 374 430 18,000  Level Atlanta Center
Mon 09:38:07 AM 32.8150 -85.3067 34° Northeast 374 430 18,000 -550 Level Atlanta Center
Mon 09:39:07 AM 32.9033 -85.2389 33° Northeast 374 430 16,900 -1,600 Descending Atlanta Center
Mon 09:40:07 AM 32.9917 -85.1731 32° Northeast 374 430 14,800 -1,950 Descending Atlanta Center
Mon 09:41:07 AM 33.0672 -85.1147 33° Northeast 369 425 13,000 -1,350 Descending Atlanta Center
Mon 09:42:07 AM 33.1536 -85.0511 32° Northeast 352 405 12,100 -600 Descending Atlanta Center
Mon 09:43:07 AM 33.2208 -84.9850 39° Northeast 328 377 11,800 -1,000 Descending Atlanta Center
Mon 09:44:07 AM 33.2653 -84.8933 60° Northeast 307 353 10,100 -1,550 Descending Atlanta Center
Mon 09:45:07 AM 33.3075 -84.8044 60° Northeast 307 353 8,700 -1,300 Descending Atlanta Center
Mon 09:46:07 AM 33.3683 -84.7875 13° North 248 285 7,500 -1,500 Descending Atlanta Center
Mon 09:47:03 AM 33.4167 -84.8167 333° Northwest 225 259 5,800 -1,655 Descending Atlanta TRACON
Mon 09:48:03 AM 33.4667 -84.8500 331° Northwest 233 268 4,300 -900 Descending Atlanta TRACON
Mon 09:49:03 AM 33.5333 -84.8333 12° North 221 254 4,000 -400 Descending Atlanta TRACON
Mon 09:50:03 AM 33.5833 -84.8167 16° North 201 231 3,500 -500 Descending Atlanta TRACON
Mon 09:51:03 AM 33.6167 -84.7500 59° Northeast 200 230 3,000 -250 Descending Atlanta TRACON
Mon 09:52:03 AM 33.6167 -84.7000 90° East 187 215 3,000  Level Atlanta TRACON

Login

Don't have an account? Register now (free) for customized features, flight alerts, and more!